createdAt,value
2023-03-15T00:03:31.079Z,1.83
2023-03-15T00:08:34.585Z,1.67
2023-03-15T00:13:39.214Z,1.70
2023-03-15T00:18:42.886Z,1.45
2023-03-15T00:23:46.928Z,1.60
2023-03-15T00:28:51.722Z,1.73
2023-03-15T00:33:55.229Z,2.13
2023-03-15T00:39:01.808Z,1.73
2023-03-15T00:44:06.684Z,1.60
2023-03-15T00:49:09.959Z,1.73
2023-03-15T00:54:14.167Z,1.38
2023-03-15T00:59:18.859Z,1.58
2023-03-15T01:04:22.277Z,1.70
2023-03-15T01:14:35.338Z,1.15
2023-03-15T01:19:38.806Z,1.27
2023-03-15T01:24:42.495Z,1.48
2023-03-15T01:29:47.255Z,1.35
2023-03-15T01:34:51.618Z,1.30
2023-03-15T01:39:55.247Z,1.73
2023-03-15T01:45:01.427Z,1.42
2023-03-15T01:50:08.074Z,1.10
2023-03-15T01:55:14.996Z,1.83
2023-03-15T02:00:32.442Z,1.60
2023-03-15T02:05:46.236Z,1.67
2023-03-15T02:10:58.651Z,1.35
2023-03-15T02:16:06.859Z,1.10
2023-03-15T02:21:34.200Z,1.48
2023-03-15T02:26:43.479Z,2.25
2023-03-15T02:31:48.180Z,3.15
2023-03-15T02:36:51.431Z,10.47
2023-03-15T02:41:56.660Z,12.88
2023-03-15T02:47:05.966Z,7.82
2023-03-15T02:52:09.956Z,5.60
2023-03-15T02:57:13.950Z,3.55
2023-03-15T03:02:18.701Z,2.95
2023-03-15T03:07:22.001Z,1.93
2023-03-15T03:12:30.584Z,1.65
2023-03-15T03:17:37.485Z,1.52
2023-03-15T03:22:44.874Z,0.85
2023-03-15T03:27:48.826Z,3.08
2023-03-15T03:32:54.296Z,0.80
2023-03-15T03:37:58.089Z,1.48
2023-03-15T03:43:09.917Z,1.60
2023-03-15T03:48:14.652Z,1.35
2023-03-15T03:53:18.012Z,1.13
2023-03-15T03:58:21.805Z,1.65
2023-03-15T04:03:31.729Z,0.95
2023-03-15T04:08:42.635Z,0.80
2023-03-15T04:13:49.785Z,1.25
2023-03-15T04:18:56.450Z,1.10
2023-03-15T04:24:00.601Z,1.55
2023-03-15T04:29:34.623Z,1.15
2023-03-15T04:34:59.516Z,1.55
2023-03-15T04:40:15.532Z,1.20
2023-03-15T04:45:48.168Z,1.63
2023-03-15T04:51:11.529Z,1.40
2023-03-15T04:56:20.906Z,1.40
2023-03-15T05:01:42.834Z,2.08
2023-03-15T05:07:05.939Z,1.20
2023-03-15T05:12:20.656Z,1.17
2023-03-15T05:18:02.615Z,1.05
2023-03-15T05:23:44.501Z,1.88
2023-03-15T05:29:04.926Z,1.65
2023-03-15T05:34:36.381Z,1.48
2023-03-15T05:40:01.520Z,1.70
2023-03-15T05:45:23.429Z,1.67
2023-03-15T05:50:45.117Z,1.60
2023-03-15T05:56:03.225Z,1.40
2023-03-15T06:01:12.689Z,1.73
2023-03-15T06:06:51.774Z,1.20
2023-03-15T06:11:59.082Z,1.48
2023-03-15T06:17:02.676Z,1.63
2023-03-15T06:22:07.993Z,1.47
2023-03-15T06:27:22.162Z,1.90
2023-03-15T06:32:27.411Z,1.55
2023-03-15T06:37:35.301Z,1.75
2023-03-15T06:42:41.764Z,1.88
2023-03-15T06:47:47.701Z,1.73
2023-03-15T06:52:52.572Z,1.20
2023-03-15T06:57:57.835Z,1.90
2023-03-15T07:03:01.204Z,2.00
2023-03-15T07:08:04.804Z,1.05
2023-03-15T07:13:10.176Z,1.63
2023-03-15T07:18:13.534Z,1.15
2023-03-15T07:23:17.240Z,1.45
2023-03-15T07:28:22.670Z,1.73
2023-03-15T07:38:30.212Z,1.88
2023-03-15T07:43:35.722Z,1.67
2023-03-15T07:48:47.890Z,2.53
2023-03-15T07:53:51.280Z,2.08
2023-03-15T07:58:55.925Z,2.30
2023-03-15T08:03:59.163Z,2.90
2023-03-15T08:09:05.659Z,1.83
2023-03-15T08:14:10.323Z,2.38
2023-03-15T08:19:13.575Z,3.00
2023-03-15T08:24:16.978Z,2.20
2023-03-15T08:29:21.735Z,2.88
2023-03-15T08:34:26.200Z,2.92
2023-03-15T08:39:29.512Z,2.63
2023-03-15T08:44:36.232Z,3.13
2023-03-15T08:49:39.895Z,2.45
2023-03-15T08:54:43.189Z,2.83
2023-03-15T08:59:48.218Z,2.53
2023-03-15T09:04:53.495Z,2.30
2023-03-15T09:09:57.938Z,3.60
2023-03-15T09:15:02.676Z,2.08
2023-03-15T09:20:11.337Z,2.97
2023-03-15T09:25:14.810Z,2.08
2023-03-15T09:30:20.097Z,2.05
2023-03-15T09:35:23.472Z,2.25
2023-03-15T09:40:29.314Z,1.73
2023-03-15T09:50:47.600Z,2.10
2023-03-15T09:55:52.224Z,1.75
2023-03-15T10:01:01.329Z,1.98
2023-03-15T10:06:12.200Z,1.80
2023-03-15T10:11:21.803Z,2.40
2023-03-15T10:16:37.609Z,1.80
2023-03-15T10:31:56.834Z,2.10
2023-03-15T10:37:00.633Z,1.85
2023-03-15T10:42:05.068Z,2.05
2023-03-15T10:47:23.763Z,1.85
2023-03-15T10:52:35.040Z,2.10
2023-03-15T10:57:41.206Z,1.58
2023-03-15T11:02:52.521Z,2.35
2023-03-15T11:07:56.920Z,2.15
2023-03-15T11:13:22.256Z,1.73
2023-03-15T11:18:34.991Z,2.23
2023-03-15T11:23:40.792Z,1.80
2023-03-15T11:28:49.654Z,1.77
2023-03-15T11:33:58.410Z,1.27
2023-03-15T11:39:04.750Z,0.57
2023-03-15T11:44:15.151Z,0.90
2023-03-15T11:49:28.638Z,0.68
2023-03-15T11:54:33.073Z,0.60
2023-03-15T11:59:39.081Z,0.75
2023-03-15T12:04:46.310Z,0.80
2023-03-15T12:09:52.447Z,0.40
2023-03-15T12:15:03.748Z,0.43
2023-03-15T12:20:19.365Z,0.65
2023-03-15T12:25:30.755Z,0.68
2023-03-15T12:30:39.328Z,0.52
2023-03-15T12:35:44.677Z,0.40
2023-03-15T12:40:58.701Z,0.52
2023-03-15T12:46:02.044Z,0.70
2023-03-15T12:51:45.171Z,0.60
2023-03-15T12:56:51.619Z,1.10
2023-03-15T13:01:58.142Z,1.48
2023-03-15T13:07:25.772Z,0.40
2023-03-15T13:12:34.224Z,0.60
2023-03-15T13:17:45.161Z,0.95
2023-03-15T13:22:56.460Z,0.80
2023-03-15T13:28:06.678Z,0.85
2023-03-15T13:33:21.550Z,0.90
2023-03-15T13:38:31.967Z,0.73
2023-03-15T13:43:37.819Z,0.90
2023-03-15T13:48:43.737Z,1.00
2023-03-15T13:53:50.853Z,0.93
2023-03-15T13:58:54.273Z,1.08
2023-03-15T14:04:01.794Z,1.17
2023-03-15T14:09:13.085Z,1.00
2023-03-15T14:14:24.519Z,1.02
2023-03-15T14:19:29.857Z,1.00
2023-03-15T14:24:37.662Z,0.80
2023-03-15T14:29:47.844Z,0.80
2023-03-15T14:34:51.502Z,1.05
2023-03-15T14:40:09.698Z,1.42
2023-03-15T14:45:13.876Z,1.08
2023-03-15T14:50:19.773Z,1.02
2023-03-15T14:55:29.733Z,1.33
2023-03-15T15:00:34.680Z,0.88
2023-03-15T15:05:37.991Z,1.10
2023-03-15T15:10:44.067Z,1.30
2023-03-15T15:15:55.267Z,1.05
2023-03-15T15:21:01.599Z,2.90
2023-03-15T15:26:08.213Z,1.63
2023-03-15T15:31:16.818Z,1.35
2023-03-15T15:36:23.468Z,1.15
2023-03-15T15:41:30.697Z,1.38
2023-03-15T15:46:33.990Z,1.50
2023-03-15T15:51:39.197Z,1.30
2023-03-15T15:56:48.452Z,1.08
2023-03-15T16:02:06.930Z,1.25
2023-03-15T16:07:11.516Z,0.63
2023-03-15T16:12:17.444Z,0.70
2023-03-15T16:17:22.697Z,0.55
2023-03-15T16:22:27.146Z,1.13
2023-03-15T16:27:31.903Z,1.60
2023-03-15T16:32:44.069Z,1.93
2023-03-15T16:37:48.323Z,0.60
2023-03-15T16:42:52.965Z,1.15
2023-03-15T16:47:56.763Z,1.25
2023-03-15T16:53:02.620Z,1.50
2023-03-15T16:58:18.107Z,1.33
2023-03-15T17:03:21.412Z,1.00
2023-03-15T17:08:25.604Z,1.15
2023-03-15T17:13:32.018Z,1.25
2023-03-15T17:18:36.227Z,1.40
2023-03-15T17:23:39.504Z,1.00
2023-03-15T17:28:44.920Z,1.63
2023-03-15T17:33:48.672Z,1.20
2023-03-15T17:38:52.550Z,1.08
2023-03-15T17:43:57.617Z,0.93
2023-03-15T17:49:01.545Z,1.00
2023-03-15T17:54:18.301Z,1.02
2023-03-15T17:59:22.961Z,0.70
2023-03-15T18:04:26.236Z,1.10
2023-03-15T18:09:29.522Z,1.20
2023-03-15T18:14:37.169Z,1.80
2023-03-15T18:19:40.514Z,1.38
2023-03-15T18:24:46.039Z,1.20
2023-03-15T18:29:52.689Z,1.60
2023-03-15T18:34:56.512Z,1.85
2023-03-15T18:39:59.766Z,1.30
2023-03-15T18:45:04.860Z,2.13
2023-03-15T18:50:10.989Z,2.15
2023-03-15T18:55:16.526Z,1.70
2023-03-15T19:05:31.303Z,2.38
2023-03-15T19:10:35.094Z,2.55
2023-03-15T19:15:39.862Z,2.78
2023-03-15T19:20:43.405Z,1.83
2023-03-15T19:25:47.328Z,2.35
2023-03-15T19:30:52.662Z,2.55
2023-03-15T19:35:56.694Z,2.75
2023-03-15T19:41:04.330Z,2.97
2023-03-15T19:46:09.094Z,2.88
2023-03-15T19:51:12.576Z,3.03
2023-03-15T19:56:15.998Z,2.53
2023-03-15T20:01:20.810Z,10.75
2023-03-15T20:06:24.070Z,2.53
2023-03-15T20:11:29.396Z,3.42
2023-03-15T20:16:34.665Z,3.83
2023-03-15T20:21:38.582Z,2.40
2023-03-15T20:26:42.192Z,2.30
2023-03-15T20:31:47.402Z,2.05
2023-03-15T20:36:52.668Z,1.67
2023-03-15T20:41:55.868Z,2.58
2023-03-15T20:47:00.889Z,1.92
2023-03-15T20:52:05.624Z,1.77
2023-03-15T20:57:09.187Z,2.50
2023-03-15T21:02:13.754Z,2.33
2023-03-15T21:07:16.980Z,2.50
2023-03-15T21:12:20.453Z,2.63
2023-03-15T21:17:25.140Z,2.15
2023-03-15T21:22:28.349Z,2.87
2023-03-15T21:27:32.817Z,3.38
2023-03-15T21:32:38.389Z,2.85
2023-03-15T21:37:41.992Z,3.10
2023-03-15T21:42:47.768Z,2.97
2023-03-15T21:47:52.722Z,2.70
2023-03-15T21:52:55.993Z,3.07
2023-03-15T21:57:59.210Z,2.35
2023-03-15T22:03:04.054Z,3.28
2023-03-15T22:08:07.797Z,3.47
2023-03-15T22:13:11.114Z,2.97
2023-03-15T22:18:15.810Z,3.03
2023-03-15T22:23:19.358Z,2.87
2023-03-15T22:28:25.060Z,3.28
2023-03-15T22:33:29.765Z,3.90
2023-03-15T22:38:37.763Z,3.57
2023-03-15T22:43:41.053Z,3.58
2023-03-15T22:48:45.868Z,3.60
2023-03-15T22:53:49.049Z,3.30
2023-03-15T22:58:55.482Z,3.40
2023-03-15T23:04:00.710Z,3.55
2023-03-15T23:09:06.272Z,2.80
2023-03-15T23:14:10.034Z,3.45
2023-03-15T23:19:15.123Z,2.58
2023-03-15T23:24:20.134Z,3.85
2023-03-15T23:29:23.897Z,2.92
2023-03-15T23:34:28.640Z,3.20
2023-03-15T23:39:33.205Z,2.97
2023-03-15T23:44:36.861Z,3.22
2023-03-15T23:49:43.608Z,2.90
2023-03-15T23:54:47.072Z,3.03
2023-03-15T23:59:50.491Z,3.55
